createdAt,value
2023-01-12T00:00:30.754Z,3.83
2023-01-12T00:04:35.496Z,3.63
2023-01-12T00:08:38.956Z,5.20
2023-01-12T00:12:42.034Z,4.18
2023-01-12T00:16:45.568Z,4.43
2023-01-12T00:20:50.625Z,4.78
2023-01-12T00:24:55.038Z,5.22
2023-01-12T00:28:58.303Z,7.20
2023-01-12T00:33:01.556Z,5.57
2023-01-12T00:37:06.425Z,4.93
2023-01-12T00:41:11.184Z,8.02
2023-01-12T00:45:22.716Z,5.30
2023-01-12T00:49:25.825Z,5.38
2023-01-12T00:53:30.209Z,6.00
2023-01-12T00:57:33.431Z,4.25
2023-01-12T01:01:36.880Z,6.05
2023-01-12T01:05:40.147Z,6.50
2023-01-12T01:09:45.159Z,8.00
2023-01-12T01:13:49.148Z,4.68
2023-01-12T01:17:52.188Z,6.97
2023-01-12T01:21:55.256Z,7.32
2023-01-12T01:26:03.584Z,4.78
2023-01-12T01:30:07.913Z,4.15
2023-01-12T01:34:11.045Z,4.78
2023-01-12T01:38:14.189Z,4.90
2023-01-12T01:42:28.176Z,4.07
2023-01-12T01:46:37.738Z,4.60
2023-01-12T01:50:44.258Z,5.00
2023-01-12T01:54:52.808Z,4.90
2023-01-12T01:59:02.212Z,5.80
2023-01-12T02:03:08.242Z,5.18
2023-01-12T02:07:12.028Z,4.63
2023-01-12T02:11:30.740Z,5.70
2023-01-12T02:16:04.981Z,4.68
2023-01-12T02:20:51.988Z,5.38
2023-01-12T02:25:26.976Z,6.65
2023-01-12T02:29:52.472Z,5.13
2023-01-12T02:34:09.523Z,4.78
2023-01-12T02:38:24.024Z,5.25
2023-01-12T02:42:42.725Z,4.88
2023-01-12T02:46:51.641Z,3.50
2023-01-12T02:51:01.813Z,4.10
2023-01-12T02:55:07.401Z,4.15
2023-01-12T02:59:15.394Z,4.60
2023-01-12T03:03:20.709Z,4.55
2023-01-12T03:07:50.189Z,4.18
2023-01-12T03:11:54.926Z,3.78
2023-01-12T03:16:00.788Z,2.88
2023-01-12T03:20:08.309Z,5.22
2023-01-12T03:24:16.360Z,3.33
2023-01-12T03:28:22.271Z,3.97
2023-01-12T03:32:26.155Z,2.97
2023-01-12T03:36:44.395Z,3.00
2023-01-12T03:40:57.535Z,3.95
2023-01-12T03:45:10.541Z,3.92
2023-01-12T03:49:20.611Z,3.80
2023-01-12T03:53:25.815Z,3.00
2023-01-12T03:57:31.072Z,2.33
2023-01-12T04:01:34.198Z,3.50
2023-01-12T04:05:37.496Z,3.45
2023-01-12T04:09:40.569Z,3.45
2023-01-12T04:13:44.955Z,3.55
2023-01-12T04:17:48.104Z,2.47
2023-01-12T04:22:08.763Z,2.55
2023-01-12T04:26:11.776Z,4.05
2023-01-12T04:30:17.920Z,4.32
2023-01-12T04:34:21.005Z,2.45
2023-01-12T04:38:24.041Z,3.00
2023-01-12T04:42:44.192Z,2.97
2023-01-12T04:46:49.285Z,2.53
2023-01-12T04:50:52.292Z,4.22
2023-01-12T04:54:56.877Z,4.25
2023-01-12T04:59:01.277Z,2.65
2023-01-12T05:03:05.665Z,3.63
2023-01-12T05:07:08.721Z,1.70
2023-01-12T05:11:10.736Z,1.67
2023-01-12T05:15:13.940Z,2.40
2023-01-12T05:19:18.346Z,1.63
2023-01-12T05:23:21.423Z,4.43
2023-01-12T05:27:24.493Z,1.63
2023-01-12T05:31:27.775Z,2.40
2023-01-12T05:35:32.176Z,1.67
2023-01-12T05:39:35.188Z,1.77
2023-01-12T05:43:54.848Z,1.00
2023-01-12T05:47:59.031Z,1.88
2023-01-12T05:52:03.456Z,4.43
2023-01-12T05:56:08.481Z,3.03
2023-01-12T06:00:12.739Z,2.20
2023-01-12T06:04:16.494Z,1.27
2023-01-12T06:08:21.153Z,2.10
2023-01-12T06:12:41.476Z,1.27
2023-01-12T06:16:44.861Z,1.60
2023-01-12T06:20:47.943Z,2.33
2023-01-12T06:24:53.844Z,1.40
2023-01-12T06:28:56.880Z,1.25
2023-01-12T06:33:03.067Z,2.58
2023-01-12T06:37:07.324Z,2.80
2023-01-12T06:41:33.459Z,1.00
2023-01-12T06:45:36.542Z,1.00
2023-01-12T06:49:39.578Z,2.88
2023-01-12T06:53:42.621Z,1.17
2023-01-12T06:57:47.126Z,2.17
2023-01-12T07:01:50.162Z,0.80
2023-01-12T07:05:53.440Z,1.40
2023-01-12T07:09:56.531Z,0.70
2023-01-12T07:14:01.173Z,1.65
2023-01-12T07:18:04.844Z,1.48
2023-01-12T07:22:07.874Z,2.00
2023-01-12T07:26:11.836Z,1.23
2023-01-12T07:30:17.034Z,1.20
2023-01-12T07:34:20.439Z,1.63
2023-01-12T07:38:23.442Z,2.47
2023-01-12T07:42:26.568Z,2.97
2023-01-12T07:46:31.239Z,2.90
2023-01-12T07:50:36.946Z,2.95
2023-01-12T07:54:39.970Z,1.73
2023-01-12T07:58:43.376Z,2.30
2023-01-12T08:02:47.885Z,2.08
2023-01-12T08:06:51.029Z,1.85
2023-01-12T08:10:54.322Z,1.98
2023-01-12T08:14:57.400Z,1.50
2023-01-12T08:19:05.061Z,0.85
2023-01-12T08:23:14.959Z,1.05
2023-01-12T08:27:22.062Z,2.78
2023-01-12T08:31:27.030Z,3.40
2023-01-12T08:35:33.467Z,1.33
2023-01-12T08:39:37.326Z,1.60
2023-01-12T08:43:57.692Z,1.42
2023-01-12T08:48:00.764Z,0.75
2023-01-12T08:52:05.359Z,2.90
2023-01-12T08:56:09.402Z,1.38
2023-01-12T09:00:13.935Z,1.27
2023-01-12T09:04:17.119Z,0.80
2023-01-12T09:08:21.806Z,3.15
2023-01-12T09:12:26.977Z,1.05
2023-01-12T09:16:32.380Z,1.65
2023-01-12T09:20:35.478Z,0.88
2023-01-12T09:24:40.141Z,1.02
2023-01-12T09:28:44.500Z,0.95
2023-01-12T09:32:47.543Z,0.52
2023-01-12T09:36:52.422Z,1.23
2023-01-12T09:40:59.311Z,1.90
2023-01-12T09:45:31.229Z,1.58
2023-01-12T09:49:40.697Z,2.13
2023-01-12T09:53:47.330Z,1.55
2023-01-12T09:58:07.695Z,1.70
2023-01-12T10:02:14.361Z,1.15
2023-01-12T10:06:19.711Z,3.88
2023-01-12T10:10:23.001Z,2.80
2023-01-12T10:14:43.397Z,1.75
2023-01-12T10:18:54.576Z,1.23
2023-01-12T10:23:02.749Z,0.93
2023-01-12T10:27:05.836Z,1.52
2023-01-12T10:31:17.069Z,0.93
2023-01-12T10:35:23.161Z,4.88
2023-01-12T10:39:32.741Z,0.73
2023-01-12T10:43:35.844Z,2.67
2023-01-12T10:47:40.584Z,2.25
2023-01-12T10:51:52.404Z,1.15
2023-01-12T10:55:57.675Z,1.00
2023-01-12T11:00:02.883Z,1.77
2023-01-12T11:04:07.514Z,1.73
2023-01-12T11:08:23.451Z,1.00
2023-01-12T11:12:32.346Z,2.17
2023-01-12T11:16:40.083Z,0.63
2023-01-12T11:20:49.982Z,1.70
2023-01-12T11:24:57.623Z,2.92
2023-01-12T11:29:08.314Z,2.53
2023-01-12T11:33:14.439Z,3.08
2023-01-12T11:37:19.093Z,1.05
2023-01-12T11:41:26.785Z,3.00
2023-01-12T11:45:43.416Z,1.70
2023-01-12T11:49:57.222Z,2.33
2023-01-12T11:54:01.874Z,3.05
2023-01-12T11:58:17.962Z,1.02
2023-01-12T12:02:34.768Z,1.02
2023-01-12T12:06:56.834Z,1.73
2023-01-12T12:11:11.460Z,3.72
2023-01-12T12:15:26.889Z,1.23
2023-01-12T12:19:41.332Z,0.82
2023-01-12T12:23:57.119Z,0.90
2023-01-12T12:28:20.954Z,1.20
2023-01-12T12:32:33.376Z,0.60
2023-01-12T12:36:42.935Z,1.95
2023-01-12T12:41:18.947Z,1.85
2023-01-12T12:45:32.181Z,1.52
2023-01-12T12:49:38.584Z,1.10
2023-01-12T12:53:44.624Z,3.17
2023-01-12T12:58:00.024Z,2.63
2023-01-12T13:02:05.226Z,0.90
2023-01-12T13:06:17.176Z,1.42
2023-01-12T13:10:26.437Z,1.60
2023-01-12T13:14:31.875Z,1.25
2023-01-12T13:19:04.276Z,2.00
2023-01-12T13:23:40.397Z,0.57
2023-01-12T13:27:55.764Z,1.42
2023-01-12T13:32:00.732Z,2.10
2023-01-12T13:36:30.778Z,1.95
2023-01-12T13:40:34.058Z,1.75
2023-01-12T13:44:43.179Z,0.93
2023-01-12T13:48:50.008Z,2.92
2023-01-12T13:53:01.866Z,0.57
2023-01-12T13:57:19.579Z,1.42
2023-01-12T14:01:28.635Z,0.68
2023-01-12T14:05:57.096Z,1.58
2023-01-12T14:10:25.873Z,2.72
2023-01-12T14:15:09.726Z,0.88
2023-01-12T14:19:28.265Z,0.90
2023-01-12T14:23:33.708Z,1.48
2023-01-12T14:27:39.133Z,0.50
2023-01-12T14:31:45.627Z,0.60
2023-01-12T14:35:52.259Z,1.15
2023-01-12T14:39:56.477Z,0.73
2023-01-12T14:44:21.024Z,3.08
2023-01-12T14:48:26.933Z,0.93
2023-01-12T14:52:32.604Z,1.15
2023-01-12T14:56:41.208Z,5.22
2023-01-12T15:00:45.889Z,2.13
2023-01-12T15:04:56.216Z,0.57
2023-01-12T15:09:01.931Z,4.38
2023-01-12T15:13:27.449Z,1.67
2023-01-12T15:17:49.275Z,0.57
2023-01-12T15:22:10.696Z,2.50
2023-01-12T15:26:13.827Z,1.65
2023-01-12T15:30:17.275Z,0.82
2023-01-12T15:34:21.665Z,1.00
2023-01-12T15:38:28.979Z,2.28
2023-01-12T15:42:32.829Z,1.05
2023-01-12T15:46:36.164Z,2.08
2023-01-12T15:50:42.350Z,0.73
2023-01-12T15:54:45.401Z,0.90
2023-01-12T15:58:49.301Z,0.60
2023-01-12T16:02:53.853Z,1.85
2023-01-12T16:06:59.348Z,0.50
2023-01-12T16:11:13.330Z,4.35
2023-01-12T16:15:18.474Z,2.58
2023-01-12T16:19:23.718Z,4.18
2023-01-12T16:23:28.955Z,0.93
2023-01-12T16:27:32.428Z,1.80
2023-01-12T16:31:37.271Z,1.35
2023-01-12T16:35:41.906Z,1.73
2023-01-12T16:39:46.325Z,3.35
2023-01-12T16:43:49.923Z,2.55
2023-01-12T16:47:57.001Z,2.72
2023-01-12T16:52:00.195Z,4.43
2023-01-12T16:56:05.121Z,2.75
2023-01-12T17:00:09.792Z,6.15
2023-01-12T17:04:12.962Z,3.88
2023-01-12T17:08:16.350Z,4.70
2023-01-12T17:12:20.943Z,3.65
2023-01-12T17:16:25.620Z,4.43
2023-01-12T17:20:28.766Z,3.40
2023-01-12T17:24:33.001Z,1.70
2023-01-12T17:28:44.501Z,2.67
2023-01-12T17:32:47.721Z,3.53
2023-01-12T17:36:50.780Z,4.00
2023-01-12T17:40:53.845Z,3.67
2023-01-12T17:44:58.486Z,2.42
2023-01-12T17:49:02.955Z,4.50
2023-01-12T17:53:09.542Z,4.20
2023-01-12T17:57:13.777Z,2.65
2023-01-12T18:01:19.575Z,3.90
2023-01-12T18:05:23.108Z,3.20
2023-01-12T18:09:27.909Z,2.53
2023-01-12T18:13:31.253Z,3.42
2023-01-12T18:17:35.774Z,3.70
2023-01-12T18:21:38.838Z,5.72
2023-01-12T18:25:42.026Z,4.38
2023-01-12T18:29:45.625Z,5.45
2023-01-12T18:33:51.105Z,5.45
2023-01-12T18:37:54.277Z,4.38
2023-01-12T18:42:14.666Z,5.55
2023-01-12T18:46:18.308Z,5.15
2023-01-12T18:50:42.881Z,5.35
2023-01-12T18:54:47.884Z,4.78
2023-01-12T18:58:51.053Z,3.53
2023-01-12T19:02:54.692Z,5.97
2023-01-12T19:07:01.328Z,3.55
2023-01-12T19:11:08.845Z,4.00
2023-01-12T19:15:29.722Z,5.25
2023-01-12T19:19:34.912Z,6.20
2023-01-12T19:23:56.776Z,6.00
2023-01-12T19:28:17.783Z,5.30
2023-01-12T19:32:20.825Z,5.38
2023-01-12T19:36:36.441Z,5.80
2023-01-12T19:40:46.453Z,5.30
2023-01-12T19:44:49.484Z,6.05
2023-01-12T19:48:52.671Z,6.03
2023-01-12T19:52:57.379Z,4.05
2023-01-12T19:57:01.849Z,6.90
2023-01-12T20:01:05.403Z,4.72
2023-01-12T20:05:13.360Z,4.63
2023-01-12T20:09:16.676Z,5.63
2023-01-12T20:13:21.504Z,4.65
2023-01-12T20:17:24.570Z,5.75
2023-01-12T20:21:27.880Z,4.38
2023-01-12T20:25:31.372Z,6.68
2023-01-12T20:29:35.913Z,5.32
2023-01-12T20:33:41.324Z,6.68
2023-01-12T20:37:45.300Z,5.18
2023-01-12T20:41:50.775Z,5.78
2023-01-12T20:45:55.444Z,5.72
2023-01-12T20:49:58.715Z,3.90
2023-01-12T20:54:03.411Z,6.32
2023-01-12T20:58:06.602Z,5.25
2023-01-12T21:02:17.997Z,6.50
2023-01-12T21:06:21.381Z,4.43
2023-01-12T21:10:24.926Z,4.70
2023-01-12T21:14:28.541Z,6.43
2023-01-12T21:18:33.054Z,7.10
2023-01-12T21:22:36.113Z,5.00
2023-01-12T21:26:39.179Z,5.93
2023-01-12T21:30:42.436Z,4.97
2023-01-12T21:34:48.928Z,4.93
2023-01-12T21:38:52.368Z,6.10
2023-01-12T21:43:10.257Z,7.82
2023-01-12T21:47:13.416Z,5.72
2023-01-12T21:51:18.910Z,6.35
2023-01-12T21:55:21.937Z,8.07
2023-01-12T21:59:24.961Z,8.95
2023-01-12T22:03:29.520Z,6.57
2023-01-12T22:07:33.964Z,7.00
2023-01-12T22:11:37.059Z,7.75
2023-01-12T22:15:40.121Z,6.70
2023-01-12T22:19:43.179Z,7.85
2023-01-12T22:23:48.292Z,7.57
2023-01-12T22:27:51.297Z,6.47
2023-01-12T22:31:54.410Z,7.53
2023-01-12T22:35:57.448Z,7.03
2023-01-12T22:40:02.242Z,8.98
2023-01-12T22:44:05.682Z,5.38
2023-01-12T22:48:09.151Z,7.18
2023-01-12T22:52:12.153Z,8.98
2023-01-12T22:56:16.608Z,6.75
2023-01-12T23:01:09.680Z,6.85
